sensor_id;sensor_type;location;lat;lon;timestamp;pressure;altitude;pressure_sealevel;temperature;humidity
59435;BME280;45241;49.768;8.636;2023-01-29T00:01:50;101509.25;;;2.82;69.35
59435;BME280;45241;49.768;8.636;2023-01-29T00:04:16;101506.63;;;3.06;64.20
59435;BME280;45241;49.768;8.636;2023-01-29T00:06:41;101506.28;;;3.11;64.78
59435;BME280;45241;49.768;8.636;2023-01-29T00:09:06;101501.31;;;2.82;64.25
59435;BME280;45241;49.768;8.636;2023-01-29T00:11:32;101503.56;;;3.00;63.87
59435;BME280;45241;49.768;8.636;2023-01-29T00:13:57;101504.28;;;3.02;64.20
59435;BME280;45241;49.768;8.636;2023-01-29T00:16:23;101509.84;;;2.24;66.70
59435;BME280;45241;49.768;8.636;2023-01-29T00:18:48;101504.84;;;2.57;66.98
59435;BME280;45241;49.768;8.636;2023-01-29T00:21:16;101512.69;;;2.59;65.84
59435;BME280;45241;49.768;8.636;2023-01-29T00:23:42;101505.72;;;2.33;66.87
59435;BME280;45241;49.768;8.636;2023-01-29T00:26:08;101511.88;;;2.20;65.81
59435;BME280;45241;49.768;8.636;2023-01-29T00:28:34;101512.13;;;2.79;65.76
59435;BME280;45241;49.768;8.636;2023-01-29T00:33:36;101516.22;;;3.20;64.88
59435;BME280;45241;49.768;8.636;2023-01-29T00:36:03;101519.03;;;2.69;64.64
59435;BME280;45241;49.768;8.636;2023-01-29T00:38:29;101525.53;;;2.89;65.66
59435;BME280;45241;49.768;8.636;2023-01-29T00:40:54;101528.81;;;2.31;65.36
59435;BME280;45241;49.768;8.636;2023-01-29T00:43:38;101525.06;;;2.71;66.17
59435;BME280;45241;49.768;8.636;2023-01-29T00:46:22;101527.09;;;2.92;65.05
59435;BME280;45241;49.768;8.636;2023-01-29T00:48:47;101529.19;;;2.63;65.03
59435;BME280;45241;49.768;8.636;2023-01-29T00:51:13;101522.91;;;2.76;64.90
59435;BME280;45241;49.768;8.636;2023-01-29T00:53:38;101526.78;;;2.47;65.83
59435;BME280;45241;49.768;8.636;2023-01-29T00:56:03;101534.47;;;2.63;66.33
59435;BME280;45241;49.768;8.636;2023-01-29T00:58:29;101531.13;;;2.48;66.33
59435;BME280;45241;49.768;8.636;2023-01-29T01:01:00;101528.84;;;2.80;65.50
59435;BME280;45241;49.768;8.636;2023-01-29T01:03:26;101525.91;;;2.72;67.05
59435;BME280;45241;49.768;8.636;2023-01-29T01:06:04;101527.94;;;2.92;65.63
59435;BME280;45241;49.768;8.636;2023-01-29T01:08:30;101528.66;;;2.70;66.33
59435;BME280;45241;49.768;8.636;2023-01-29T01:11:14;101528.28;;;2.87;65.64
59435;BME280;45241;49.768;8.636;2023-01-29T01:13:39;101517.88;;;2.97;64.81
59435;BME280;45241;49.768;8.636;2023-01-29T01:16:09;101517.13;;;3.08;65.40
59435;BME280;45241;49.768;8.636;2023-01-29T01:18:35;101526.66;;;2.61;65.76
59435;BME280;45241;49.768;8.636;2023-01-29T01:21:02;101522.09;;;2.63;65.60
59435;BME280;45241;49.768;8.636;2023-01-29T01:23:27;101520.97;;;2.91;64.89
59435;BME280;45241;49.768;8.636;2023-01-29T01:25:52;101520.22;;;2.89;65.11
59435;BME280;45241;49.768;8.636;2023-01-29T01:28:18;101508.50;;;2.80;65.37
59435;BME280;45241;49.768;8.636;2023-01-29T01:30:43;101510.25;;;2.56;67.11
59435;BME280;45241;49.768;8.636;2023-01-29T01:33:09;101509.59;;;2.65;65.04
59435;BME280;45241;49.768;8.636;2023-01-29T01:35:34;101511.66;;;2.85;66.22
59435;BME280;45241;49.768;8.636;2023-01-29T01:37:59;101511.06;;;2.82;66.12
59435;BME280;45241;49.768;8.636;2023-01-29T01:40:25;101505.56;;;2.72;67.39
59435;BME280;45241;49.768;8.636;2023-01-29T01:42:56;101506.78;;;2.43;64.98
59435;BME280;45241;49.768;8.636;2023-01-29T01:45:35;101506.63;;;3.06;66.39
59435;BME280;45241;49.768;8.636;2023-01-29T01:48:17;101498.03;;;3.03;65.31
59435;BME280;45241;49.768;8.636;2023-01-29T01:53:12;101499.72;;;2.18;66.67
59435;BME280;45241;49.768;8.636;2023-01-29T01:55:44;101498.50;;;2.60;68.36
59435;BME280;45241;49.768;8.636;2023-01-29T01:58:17;101489.19;;;2.54;66.10
59435;BME280;45241;49.768;8.636;2023-01-29T02:00:44;101490.38;;;1.99;67.16
59435;BME280;45241;49.768;8.636;2023-01-29T02:03:10;101483.22;;;2.64;67.29
59435;BME280;45241;49.768;8.636;2023-01-29T02:05:56;101479.69;;;2.76;65.84
59435;BME280;45241;49.768;8.636;2023-01-29T02:11:31;101461.72;;;3.16;64.72
59435;BME280;45241;49.768;8.636;2023-01-29T02:13:57;101459.81;;;3.18;64.55
59435;BME280;45241;49.768;8.636;2023-01-29T02:16:23;101460.50;;;3.09;64.62
59435;BME280;45241;49.768;8.636;2023-01-29T02:18:48;101455.66;;;3.03;65.89
59435;BME280;45241;49.768;8.636;2023-01-29T02:21:24;101468.25;;;2.75;66.88
59435;BME280;45241;49.768;8.636;2023-01-29T02:24:31;101461.13;;;2.52;67.34
59435;BME280;45241;49.768;8.636;2023-01-29T02:27:15;101458.75;;;2.23;67.27
59435;BME280;45241;49.768;8.636;2023-01-29T02:32:19;101453.69;;;2.70;66.46
59435;BME280;45241;49.768;8.636;2023-01-29T02:40:53;101454.97;;;2.88;64.71
59435;BME280;45241;49.768;8.636;2023-01-29T02:43:35;101456.34;;;2.94;64.16
59435;BME280;45241;49.768;8.636;2023-01-29T02:48:51;101449.97;;;2.72;64.33
59435;BME280;45241;49.768;8.636;2023-01-29T02:51:23;101464.19;;;2.95;64.35
59435;BME280;45241;49.768;8.636;2023-01-29T02:54:00;101460.09;;;3.02;63.89
59435;BME280;45241;49.768;8.636;2023-01-29T02:56:43;101464.47;;;2.79;64.31
59435;BME280;45241;49.768;8.636;2023-01-29T02:59:19;101471.50;;;2.55;65.03
59435;BME280;45241;49.768;8.636;2023-01-29T03:01:59;101480.78;;;2.73;65.04
59435;BME280;45241;49.768;8.636;2023-01-29T03:04:29;101479.50;;;2.66;65.94
59435;BME280;45241;49.768;8.636;2023-01-29T03:07:00;101486.44;;;2.56;66.11
59435;BME280;45241;49.768;8.636;2023-01-29T03:09:33;101483.66;;;2.70;66.19
59435;BME280;45241;49.768;8.636;2023-01-29T03:12:09;101490.41;;;2.74;65.70
59435;BME280;45241;49.768;8.636;2023-01-29T03:14:54;101498.53;;;2.84;65.56
59435;BME280;45241;49.768;8.636;2023-01-29T03:17:52;101508.78;;;2.88;65.92
59435;BME280;45241;49.768;8.636;2023-01-29T03:20:22;101508.25;;;2.96;66.03
59435;BME280;45241;49.768;8.636;2023-01-29T03:22:54;101502.88;;;2.85;66.03
59435;BME280;45241;49.768;8.636;2023-01-29T03:25:23;101504.28;;;2.65;66.89
59435;BME280;45241;49.768;8.636;2023-01-29T03:28:09;101495.47;;;2.77;67.46
59435;BME280;45241;49.768;8.636;2023-01-29T03:30:56;101492.44;;;2.71;67.31
59435;BME280;45241;49.768;8.636;2023-01-29T03:34:08;101494.81;;;2.24;68.66
59435;BME280;45241;49.768;8.636;2023-01-29T03:36:57;101480.03;;;2.71;67.56
59435;BME280;45241;49.768;8.636;2023-01-29T03:39:26;101490.78;;;2.44;67.88
59435;BME280;45241;49.768;8.636;2023-01-29T03:41:59;101491.31;;;2.49;67.45
59435;BME280;45241;49.768;8.636;2023-01-29T03:44:38;101502.03;;;1.97;68.92
59435;BME280;45241;49.768;8.636;2023-01-29T03:47:21;101507.31;;;2.48;67.50
59435;BME280;45241;49.768;8.636;2023-01-29T03:50:06;101506.63;;;2.70;68.36
59435;BME280;45241;49.768;8.636;2023-01-29T03:52:43;101511.03;;;2.20;69.86
59435;BME280;45241;49.768;8.636;2023-01-29T03:55:22;101511.09;;;2.56;67.79
59435;BME280;45241;49.768;8.636;2023-01-29T03:58:04;101518.88;;;2.83;66.53
59435;BME280;45241;49.768;8.636;2023-01-29T04:00:48;101514.06;;;2.39;67.92
59435;BME280;45241;49.768;8.636;2023-01-29T04:03:20;101508.78;;;2.39;70.22
59435;BME280;45241;49.768;8.636;2023-01-29T04:05:53;101498.72;;;2.57;69.75
59435;BME280;45241;49.768;8.636;2023-01-29T04:08:32;101492.38;;;2.47;72.20
59435;BME280;45241;49.768;8.636;2023-01-29T04:11:01;101489.97;;;2.80;70.81
59435;BME280;45241;49.768;8.636;2023-01-29T04:13:29;101482.81;;;2.70;70.22
59435;BME280;45241;49.768;8.636;2023-01-29T04:15:58;101484.16;;;2.75;70.11
59435;BME280;45241;49.768;8.636;2023-01-29T04:18:25;101484.41;;;2.60;68.90
59435;BME280;45241;49.768;8.636;2023-01-29T04:20:50;101484.75;;;2.55;69.08
59435;BME280;45241;49.768;8.636;2023-01-29T04:23:24;101496.66;;;2.73;69.06
59435;BME280;45241;49.768;8.636;2023-01-29T04:29:09;101492.09;;;2.01;71.11
59435;BME280;45241;49.768;8.636;2023-01-29T04:32:05;101489.81;;;2.58;69.43
59435;BME280;45241;49.768;8.636;2023-01-29T04:34:28;101487.16;;;2.58;68.93
59435;BME280;45241;49.768;8.636;2023-01-29T04:37:11;101475.69;;;2.08;66.21
59435;BME280;45241;49.768;8.636;2023-01-29T04:40:19;101456.91;;;2.37;66.39
59435;BME280;45241;49.768;8.636;2023-01-29T04:42:49;101448.19;;;2.60;66.59
59435;BME280;45241;49.768;8.636;2023-01-29T04:45:26;101444.03;;;2.69;66.56
59435;BME280;45241;49.768;8.636;2023-01-29T04:48:23;101456.34;;;1.95;66.99
59435;BME280;45241;49.768;8.636;2023-01-29T04:51:07;101461.72;;;2.32;66.16
59435;BME280;45241;49.768;8.636;2023-01-29T04:53:49;101452.59;;;2.36;66.59
59435;BME280;45241;49.768;8.636;2023-01-29T04:56:29;101441.31;;;2.57;66.71
59435;BME280;45241;49.768;8.636;2023-01-29T04:59:02;101449.56;;;2.16;68.19
59435;BME280;45241;49.768;8.636;2023-01-29T05:01:29;101462.00;;;2.40;68.51
59435;BME280;45241;49.768;8.636;2023-01-29T05:03:59;101457.28;;;2.69;68.23
59435;BME280;45241;49.768;8.636;2023-01-29T05:06:28;101466.38;;;2.65;67.39
59435;BME280;45241;49.768;8.636;2023-01-29T05:08:55;101473.16;;;2.19;69.04
59435;BME280;45241;49.768;8.636;2023-01-29T05:11:23;101469.34;;;1.85;67.84
59435;BME280;45241;49.768;8.636;2023-01-29T05:13:49;101475.34;;;2.38;67.27
59435;BME280;45241;49.768;8.636;2023-01-29T05:16:24;101486.44;;;2.56;67.30
59435;BME280;45241;49.768;8.636;2023-01-29T05:18:50;101485.19;;;2.36;67.92
59435;BME280;45241;49.768;8.636;2023-01-29T05:21:16;101490.31;;;2.63;68.25
59435;BME280;45241;49.768;8.636;2023-01-29T05:23:41;101500.31;;;2.47;68.25
59435;BME280;45241;49.768;8.636;2023-01-29T05:26:18;101503.06;;;2.45;69.22
59435;BME280;45241;49.768;8.636;2023-01-29T05:29:03;101503.50;;;2.39;70.36
59435;BME280;45241;49.768;8.636;2023-01-29T05:31:29;101495.38;;;1.91;71.87
59435;BME280;45241;49.768;8.636;2023-01-29T05:33:54;101489.66;;;2.23;71.23
59435;BME280;45241;49.768;8.636;2023-01-29T05:36:20;101484.13;;;1.88;70.05
59435;BME280;45241;49.768;8.636;2023-01-29T05:38:45;101470.94;;;1.35;73.48
59435;BME280;45241;49.768;8.636;2023-01-29T05:41:10;101463.03;;;1.35;74.29
59435;BME280;45241;49.768;8.636;2023-01-29T05:43:35;101460.25;;;1.89;73.46
59435;BME280;45241;49.768;8.636;2023-01-29T05:46:01;101462.31;;;2.35;70.77
59435;BME280;45241;49.768;8.636;2023-01-29T05:48:27;101459.56;;;2.37;70.21
59435;BME280;45241;49.768;8.636;2023-01-29T05:50:58;101461.16;;;2.39;69.28
59435;BME280;45241;49.768;8.636;2023-01-29T05:53:23;101468.50;;;2.10;68.39
59435;BME280;45241;49.768;8.636;2023-01-29T05:55:48;101480.84;;;1.72;69.32
59435;BME280;45241;49.768;8.636;2023-01-29T05:58:14;101487.44;;;2.30;68.50
59435;BME280;45241;49.768;8.636;2023-01-29T06:00:40;101484.44;;;2.47;67.87
59435;BME280;45241;49.768;8.636;2023-01-29T06:03:05;101485.25;;;2.60;67.32
59435;BME280;45241;49.768;8.636;2023-01-29T06:05:31;101477.41;;;2.71;67.19
59435;BME280;45241;49.768;8.636;2023-01-29T06:07:56;101475.81;;;2.69;67.97
59435;BME280;45241;49.768;8.636;2023-01-29T06:10:21;101476.03;;;2.16;70.13
59435;BME280;45241;49.768;8.636;2023-01-29T06:12:47;101474.94;;;1.81;73.30
59435;BME280;45241;49.768;8.636;2023-01-29T06:15:12;101475.66;;;1.57;73.34
59435;BME280;45241;49.768;8.636;2023-01-29T06:17:43;101481.31;;;2.16;71.05
59435;BME280;45241;49.768;8.636;2023-01-29T06:20:09;101477.88;;;2.27;69.71
59435;BME280;45241;49.768;8.636;2023-01-29T06:22:34;101478.75;;;2.40;68.22
59435;BME280;45241;49.768;8.636;2023-01-29T06:25:00;101467.97;;;2.18;67.86
59435;BME280;45241;49.768;8.636;2023-01-29T06:27:25;101472.16;;;2.46;68.96
59435;BME280;45241;49.768;8.636;2023-01-29T06:29:50;101467.06;;;2.55;68.38
59435;BME280;45241;49.768;8.636;2023-01-29T06:32:16;101464.06;;;2.60;67.72
59435;BME280;45241;49.768;8.636;2023-01-29T06:34:41;101466.03;;;2.45;69.02
59435;BME280;45241;49.768;8.636;2023-01-29T06:37:06;101462.88;;;2.40;68.33
59435;BME280;45241;49.768;8.636;2023-01-29T06:39:32;101462.75;;;2.42;68.02
59435;BME280;45241;49.768;8.636;2023-01-29T06:41:58;101472.69;;;2.38;67.24
59435;BME280;45241;49.768;8.636;2023-01-29T06:44:23;101475.25;;;2.27;68.62
59435;BME280;45241;49.768;8.636;2023-01-29T06:46:48;101473.13;;;2.32;68.36
59435;BME280;45241;49.768;8.636;2023-01-29T06:49:13;101474.94;;;2.32;68.72
59435;BME280;45241;49.768;8.636;2023-01-29T06:51:39;101472.72;;;2.25;68.82
59435;BME280;45241;49.768;8.636;2023-01-29T06:54:04;101468.59;;;1.71;69.84
59435;BME280;45241;49.768;8.636;2023-01-29T06:56:32;101460.34;;;1.88;68.08
59435;BME280;45241;49.768;8.636;2023-01-29T06:58:57;101461.56;;;1.04;72.23
59435;BME280;45241;49.768;8.636;2023-01-29T07:01:23;101471.81;;;1.09;74.27
59435;BME280;45241;49.768;8.636;2023-01-29T07:03:49;101469.31;;;1.60;74.70
59435;BME280;45241;49.768;8.636;2023-01-29T07:06:15;101471.25;;;1.96;71.25
59435;BME280;45241;49.768;8.636;2023-01-29T07:08:41;101477.38;;;1.84;71.09
59435;BME280;45241;49.768;8.636;2023-01-29T07:11:06;101467.97;;;1.80;70.14
59435;BME280;45241;49.768;8.636;2023-01-29T07:13:32;101472.81;;;2.11;70.00
59435;BME280;45241;49.768;8.636;2023-01-29T07:16:01;101471.56;;;2.30;70.26
59435;BME280;45241;49.768;8.636;2023-01-29T07:18:28;101483.22;;;1.76;72.44
59435;BME280;45241;49.768;8.636;2023-01-29T07:20:54;101480.75;;;2.11;70.28
59435;BME280;45241;49.768;8.636;2023-01-29T07:23:19;101487.72;;;2.38;70.30
59435;BME280;45241;49.768;8.636;2023-01-29T07:25:45;101490.84;;;2.06;69.92
59435;BME280;45241;49.768;8.636;2023-01-29T07:28:11;101494.09;;;1.84;70.21
59435;BME280;45241;49.768;8.636;2023-01-29T07:30:36;101498.31;;;2.25;69.08
59435;BME280;45241;49.768;8.636;2023-01-29T07:33:06;101498.63;;;1.82;70.09
59435;BME280;45241;49.768;8.636;2023-01-29T07:35:36;101505.22;;;2.27;69.92
59435;BME280;45241;49.768;8.636;2023-01-29T07:38:01;101505.97;;;2.17;69.63
59435;BME280;45241;49.768;8.636;2023-01-29T07:40:27;101510.16;;;1.68;73.29
59435;BME280;45241;49.768;8.636;2023-01-29T07:42:59;101511.53;;;1.87;72.32
59435;BME280;45241;49.768;8.636;2023-01-29T07:45:25;101514.75;;;2.30;71.21
59435;BME280;45241;49.768;8.636;2023-01-29T07:47:51;101507.53;;;2.45;69.88
59435;BME280;45241;49.768;8.636;2023-01-29T07:50:17;101503.91;;;2.58;69.35
59435;BME280;45241;49.768;8.636;2023-01-29T07:52:43;101504.50;;;2.75;69.08
59435;BME280;45241;49.768;8.636;2023-01-29T07:55:08;101506.28;;;2.74;68.00
59435;BME280;45241;49.768;8.636;2023-01-29T07:57:33;101501.09;;;2.73;68.49
59435;BME280;45241;49.768;8.636;2023-01-29T07:59:59;101501.88;;;2.62;69.38
59435;BME280;45241;49.768;8.636;2023-01-29T08:02:24;101503.13;;;1.42;73.89
59435;BME280;45241;49.768;8.636;2023-01-29T08:04:49;101502.47;;;2.16;72.71
59435;BME280;45241;49.768;8.636;2023-01-29T08:07:15;101507.81;;;1.64;71.64
59435;BME280;45241;49.768;8.636;2023-01-29T08:09:40;101510.53;;;1.23;72.64
59435;BME280;45241;49.768;8.636;2023-01-29T08:12:05;101504.22;;;1.65;69.11
59435;BME280;45241;49.768;8.636;2023-01-29T08:14:31;101493.84;;;2.51;68.42
59435;BME280;45241;49.768;8.636;2023-01-29T08:16:56;101492.78;;;2.90;67.23
59435;BME280;45241;49.768;8.636;2023-01-29T08:19:21;101500.53;;;2.93;66.21
59435;BME280;45241;49.768;8.636;2023-01-29T08:21:47;101496.22;;;2.79;67.95
59435;BME280;45241;49.768;8.636;2023-01-29T08:24:12;101495.81;;;2.73;68.01
59435;BME280;45241;49.768;8.636;2023-01-29T08:26:38;101501.31;;;2.82;67.84
59435;BME280;45241;49.768;8.636;2023-01-29T08:29:03;101502.38;;;2.80;67.30
59435;BME280;45241;49.768;8.636;2023-01-29T08:31:28;101514.88;;;2.65;66.15
59435;BME280;45241;49.768;8.636;2023-01-29T08:33:54;101517.28;;;2.32;65.74
59435;BME280;45241;49.768;8.636;2023-01-29T08:36:20;101530.72;;;2.28;67.97
59435;BME280;45241;49.768;8.636;2023-01-29T08:38:45;101533.13;;;1.81;68.02
59435;BME280;45241;49.768;8.636;2023-01-29T08:41:10;101525.66;;;2.75;66.96
59435;BME280;45241;49.768;8.636;2023-01-29T08:43:36;101509.22;;;2.95;65.62
59435;BME280;45241;49.768;8.636;2023-01-29T08:46:03;101498.50;;;1.71;67.63
59435;BME280;45241;49.768;8.636;2023-01-29T08:48:29;101481.69;;;2.36;66.63
59435;BME280;45241;49.768;8.636;2023-01-29T08:50:59;101480.00;;;2.35;68.30
59435;BME280;45241;49.768;8.636;2023-01-29T08:53:25;101469.34;;;2.73;66.91
59435;BME280;45241;49.768;8.636;2023-01-29T08:55:50;101474.13;;;2.92;65.83
59435;BME280;45241;49.768;8.636;2023-01-29T08:58:16;101477.53;;;2.94;64.87
59435;BME280;45241;49.768;8.636;2023-01-29T09:00:41;101486.25;;;2.46;65.68
59435;BME280;45241;49.768;8.636;2023-01-29T09:03:06;101488.25;;;2.43;67.00
59435;BME280;45241;49.768;8.636;2023-01-29T09:05:33;101494.88;;;2.61;65.73
59435;BME280;45241;49.768;8.636;2023-01-29T09:07:58;101485.97;;;2.99;65.55
59435;BME280;45241;49.768;8.636;2023-01-29T09:10:24;101495.47;;;2.41;64.67
59435;BME280;45241;49.768;8.636;2023-01-29T09:12:50;101492.47;;;2.58;65.57
59435;BME280;45241;49.768;8.636;2023-01-29T09:15:15;101500.19;;;2.61;65.16
59435;BME280;45241;49.768;8.636;2023-01-29T09:17:40;101493.97;;;1.86;66.07
59435;BME280;45241;49.768;8.636;2023-01-29T09:20:07;101496.19;;;2.43;65.51
59435;BME280;45241;49.768;8.636;2023-01-29T09:22:34;101498.19;;;2.52;65.44
59435;BME280;45241;49.768;8.636;2023-01-29T09:24:59;101506.13;;;2.88;65.19
59435;BME280;45241;49.768;8.636;2023-01-29T09:27:25;101514.00;;;2.77;63.70
59435;BME280;45241;49.768;8.636;2023-01-29T09:29:50;101528.06;;;2.54;63.86
59435;BME280;45241;49.768;8.636;2023-01-29T09:32:15;101529.88;;;2.90;65.04
59435;BME280;45241;49.768;8.636;2023-01-29T09:34:40;101531.69;;;2.77;64.63
59435;BME280;45241;49.768;8.636;2023-01-29T09:37:06;101536.66;;;2.94;63.80
59435;BME280;45241;49.768;8.636;2023-01-29T09:39:31;101540.25;;;2.93;65.41
59435;BME280;45241;49.768;8.636;2023-01-29T09:45:22;101556.97;;;1.54;67.84
59435;BME280;45241;49.768;8.636;2023-01-29T09:47:52;101558.22;;;2.13;67.54
59435;BME280;45241;49.768;8.636;2023-01-29T09:53:03;101554.66;;;2.89;66.19
59435;BME280;45241;49.768;8.636;2023-01-29T09:55:36;101558.69;;;2.95;65.70
59435;BME280;45241;49.768;8.636;2023-01-29T09:58:15;101554.19;;;2.71;65.59
59435;BME280;45241;49.768;8.636;2023-01-29T10:06:36;101538.72;;;3.02;66.49
59435;BME280;45241;49.768;8.636;2023-01-29T10:12:12;101544.13;;;2.64;68.51
59435;BME280;45241;49.768;8.636;2023-01-29T10:20:34;101526.78;;;3.44;65.12
59435;BME280;45241;49.768;8.636;2023-01-29T10:23:06;101529.38;;;3.57;65.82
59435;BME280;45241;49.768;8.636;2023-01-29T10:25:40;101526.97;;;2.69;70.34
59435;BME280;45241;49.768;8.636;2023-01-29T10:28:17;101520.81;;;2.69;66.87
59435;BME280;45241;49.768;8.636;2023-01-29T10:30:48;101520.88;;;2.31;66.79
59435;BME280;45241;49.768;8.636;2023-01-29T10:33:25;101502.16;;;2.08;66.31
59435;BME280;45241;49.768;8.636;2023-01-29T10:35:57;101500.84;;;2.01;67.26
59435;BME280;45241;49.768;8.636;2023-01-29T10:38:57;101502.38;;;2.05;68.02
59435;BME280;45241;49.768;8.636;2023-01-29T10:41:41;101492.41;;;2.34;66.46
59435;BME280;45241;49.768;8.636;2023-01-29T10:44:44;101480.97;;;3.07;66.09
59435;BME280;45241;49.768;8.636;2023-01-29T10:53:22;101469.66;;;2.32;69.02
59435;BME280;45241;49.768;8.636;2023-01-29T10:59:25;101453.56;;;2.71;67.24
59435;BME280;45241;49.768;8.636;2023-01-29T11:01:49;101454.44;;;2.59;66.94
59435;BME280;45241;49.768;8.636;2023-01-29T11:04:15;101450.28;;;2.92;68.37
59435;BME280;45241;49.768;8.636;2023-01-29T11:06:40;101446.06;;;2.89;65.37
59435;BME280;45241;49.768;8.636;2023-01-29T11:17:19;101430.19;;;2.52;67.93
59435;BME280;45241;49.768;8.636;2023-01-29T11:19:46;101422.47;;;2.13;66.47
59435;BME280;45241;49.768;8.636;2023-01-29T11:22:15;101417.69;;;2.31;66.86
59435;BME280;45241;49.768;8.636;2023-01-29T11:24:41;101415.25;;;2.27;66.71
59435;BME280;45241;49.768;8.636;2023-01-29T11:27:33;101414.31;;;2.28;66.44
59435;BME280;45241;49.768;8.636;2023-01-29T11:29:59;101405.75;;;2.49;65.88
59435;BME280;45241;49.768;8.636;2023-01-29T11:32:27;101403.91;;;2.62;65.20
59435;BME280;45241;49.768;8.636;2023-01-29T11:37:39;101388.91;;;2.13;67.14
59435;BME280;45241;49.768;8.636;2023-01-29T11:40:33;101381.88;;;3.67;64.82
59435;BME280;45241;49.768;8.636;2023-01-29T11:43:20;101383.53;;;2.75;64.13
59435;BME280;45241;49.768;8.636;2023-01-29T11:45:49;101385.78;;;2.93;64.19
59435;BME280;45241;49.768;8.636;2023-01-29T11:48:17;101386.63;;;2.93;65.24
59435;BME280;45241;49.768;8.636;2023-01-29T11:50:51;101384.75;;;2.35;65.78
59435;BME280;45241;49.768;8.636;2023-01-29T11:53:23;101372.56;;;3.04;66.85
59435;BME280;45241;49.768;8.636;2023-01-29T11:55:51;101377.69;;;3.29;65.43
59435;BME280;45241;49.768;8.636;2023-01-29T11:58:28;101358.91;;;2.86;64.09
59435;BME280;45241;49.768;8.636;2023-01-29T12:00:56;101358.59;;;3.02;64.26
59435;BME280;45241;49.768;8.636;2023-01-29T12:03:43;101351.97;;;2.72;64.18
59435;BME280;45241;49.768;8.636;2023-01-29T12:06:20;101344.41;;;2.79;64.13
59435;BME280;45241;49.768;8.636;2023-01-29T12:08:54;101345.34;;;3.48;63.06
59435;BME280;45241;49.768;8.636;2023-01-29T12:11:32;101352.34;;;2.79;64.03
59435;BME280;45241;49.768;8.636;2023-01-29T12:13:59;101359.06;;;2.48;65.42
59435;BME280;45241;49.768;8.636;2023-01-29T12:16:30;101360.31;;;2.31;66.27
59435;BME280;45241;49.768;8.636;2023-01-29T12:19:10;101351.44;;;2.56;66.09
59435;BME280;45241;49.768;8.636;2023-01-29T12:21:56;101338.53;;;2.27;66.05
59435;BME280;45241;49.768;8.636;2023-01-29T12:27:20;101332.31;;;2.64;66.71
59435;BME280;45241;49.768;8.636;2023-01-29T12:32:52;101332.31;;;2.87;64.63
59435;BME280;45241;49.768;8.636;2023-01-29T12:35:26;101333.22;;;2.75;64.97
59435;BME280;45241;49.768;8.636;2023-01-29T12:38:18;101322.94;;;2.95;64.99
59435;BME280;45241;49.768;8.636;2023-01-29T12:40:58;101321.84;;;2.38;65.30
59435;BME280;45241;49.768;8.636;2023-01-29T12:43:29;101317.34;;;2.51;66.11
59435;BME280;45241;49.768;8.636;2023-01-29T12:45:56;101310.22;;;3.11;64.98
59435;BME280;45241;49.768;8.636;2023-01-29T12:48:30;101312.38;;;2.71;65.50
59435;BME280;45241;49.768;8.636;2023-01-29T12:51:14;101310.50;;;2.84;65.54
59435;BME280;45241;49.768;8.636;2023-01-29T12:56:52;101302.75;;;3.16;65.57
59435;BME280;45241;49.768;8.636;2023-01-29T12:59:27;101296.66;;;2.92;65.53
59435;BME280;45241;49.768;8.636;2023-01-29T13:02:00;101290.06;;;2.62;65.74
59435;BME280;45241;49.768;8.636;2023-01-29T13:04:36;101281.94;;;2.76;65.84
59435;BME280;45241;49.768;8.636;2023-01-29T13:07:14;101286.31;;;2.88;67.48
59435;BME280;45241;49.768;8.636;2023-01-29T13:09:46;101282.09;;;3.32;65.18
59435;BME280;45241;49.768;8.636;2023-01-29T13:12:16;101281.66;;;3.03;66.08
59435;BME280;45241;49.768;8.636;2023-01-29T13:14:58;101276.28;;;3.38;65.20
59435;BME280;45241;49.768;8.636;2023-01-29T13:17:41;101275.44;;;3.38;64.55
59435;BME280;45241;49.768;8.636;2023-01-29T13:20:18;101280.16;;;3.34;65.52
59435;BME280;45241;49.768;8.636;2023-01-29T13:22:46;101279.91;;;3.37;64.57
59435;BME280;45241;49.768;8.636;2023-01-29T13:25:16;101270.19;;;2.80;64.20
59435;BME280;45241;49.768;8.636;2023-01-29T13:27:42;101268.81;;;3.32;63.61
59435;BME280;45241;49.768;8.636;2023-01-29T13:30:27;101263.44;;;4.11;61.97
59435;BME280;45241;49.768;8.636;2023-01-29T13:32:54;101263.00;;;3.16;63.73
59435;BME280;45241;49.768;8.636;2023-01-29T13:35:37;101260.38;;;3.38;62.81
59435;BME280;45241;49.768;8.636;2023-01-29T13:38:04;101254.72;;;3.09;63.42
59435;BME280;45241;49.768;8.636;2023-01-29T13:40:31;101248.59;;;2.74;64.83
59435;BME280;45241;49.768;8.636;2023-01-29T13:42:59;101250.25;;;3.21;64.52
59435;BME280;45241;49.768;8.636;2023-01-29T13:47:52;101232.63;;;2.86;65.40
59435;BME280;45241;49.768;8.636;2023-01-29T13:50:29;101235.09;;;2.66;66.23
59435;BME280;45241;49.768;8.636;2023-01-29T13:53:01;101230.53;;;2.79;65.89
59435;BME280;45241;49.768;8.636;2023-01-29T13:55:30;101236.50;;;3.05;65.04
59435;BME280;45241;49.768;8.636;2023-01-29T13:58:01;101231.81;;;3.42;63.90
59435;BME280;45241;49.768;8.636;2023-01-29T14:10:39;101227.31;;;7.10;53.89
59435;BME280;45241;49.768;8.636;2023-01-29T14:18:26;101222.09;;;4.40;59.46
59435;BME280;45241;49.768;8.636;2023-01-29T14:20:56;101224.72;;;3.31;63.08
59435;BME280;45241;49.768;8.636;2023-01-29T14:23:35;101206.53;;;4.03;62.78
59435;BME280;45241;49.768;8.636;2023-01-29T14:26:23;101210.53;;;3.98;62.99
59435;BME280;45241;49.768;8.636;2023-01-29T14:28:52;101200.44;;;4.24;62.20
59435;BME280;45241;49.768;8.636;2023-01-29T14:31:36;101202.06;;;3.50;61.99
59435;BME280;45241;49.768;8.636;2023-01-29T14:34:27;101198.59;;;5.88;58.82
59435;BME280;45241;49.768;8.636;2023-01-29T14:36:54;101198.63;;;7.22;51.11
59435;BME280;45241;49.768;8.636;2023-01-29T14:39:36;101195.69;;;7.80;50.78
59435;BME280;45241;49.768;8.636;2023-01-29T14:42:23;101197.69;;;7.78;48.99
59435;BME280;45241;49.768;8.636;2023-01-29T14:47:19;101203.47;;;8.80;46.54
59435;BME280;45241;49.768;8.636;2023-01-29T14:49:53;101204.03;;;9.18;48.32
59435;BME280;45241;49.768;8.636;2023-01-29T14:52:23;101205.09;;;10.34;45.13
59435;BME280;45241;49.768;8.636;2023-01-29T14:54:51;101196.84;;;10.03;46.05